• Join FlightAware (Why Join?)
  • Login
  • US Flag 
10:26AM EDT


 

Airport Tracker/Info


-or-


 

Live Flight TrackerFlight Track Log ✈ N377ES ✈ 16-Aug-2013 ✈ KIOB - I69

Flight Track Log - Related Links

Times and Time Zones

All times are in EDT time to prevent confusion due to time zone crossing. See the N377ES flight status page for this flight to view local times or setup timezone preferences in your user account.

Time Position Orientation Groundspeed Altitude Reporting Facility
EDT Latitude Longitude Course Direction KTS MPH feet Rate Location/Type
06:36PM 38.2642 -84.0219 350° North 101 116 3,500  Level Indianapolis Center
06:37PM 38.2919 -84.0317 345° North 103 119 3,500  Level Indianapolis Center
06:38PM 38.3203 -84.0428 343° North 105 121 3,500  Level Indianapolis Center
06:39PM 38.3481 -84.0494 349° North 103 119 3,600  Climbing Indianapolis Center
06:40PM 38.2716 -84.0273 350° North  Level Estimated
06:40PM 38.3836 -84.0533 355° North 105 121 3,600  Level Indianapolis Center
06:41PM 38.3072 -84.0353 350° North  Level Estimated
06:41PM 38.4125 -84.0592 351° North 105 121 3,600  Level Indianapolis Center
06:42PM 38.4422 -84.0647 352° North 107 123 3,600 -60 Level Indianapolis Center
06:43PM 38.4719 -84.0750 345° North 109 125 3,500  Descending Indianapolis Center
06:44PM 38.5011 -84.0819 349° North 109 125 3,600  Climbing Indianapolis Center
06:45PM 38.5350 -84.0892 351° North 105 121 3,600 -60 Level Indianapolis Center
06:46PM 38.5647 -84.0961 350° North 107 123 3,500 -120 Descending Indianapolis Center
06:47PM 38.5942 -84.1028 350° North 107 123 3,400 -120 Descending Indianapolis Center
06:48PM 38.6228 -84.1083 351° North 105 121 3,300  Descending Indianapolis Center
06:49PM 38.6522 -84.1147 350° North 106 122 3,500 60 Climbing Indianapolis Center
06:50PM 38.6806 -84.1211 350° North 105 121 3,500  Level Indianapolis Center
06:51PM 38.7147 -84.1297 349° North 106 122 3,500  Level Indianapolis Center
06:52PM 38.7442 -84.1339 354° North 106 122 3,500  Level Indianapolis Center
06:53PM 38.7714 -84.1408 349° North 107 123 3,500 -60 Level Indianapolis Center
06:55PM 38.8333 -84.1500 353° North 113 130 3,400 -60 Descending Cincinnati TRACON
06:56PM 38.8500 -84.1500 360° North 109 125 3,400 -120 Level Cincinnati TRACON
06:57PM 38.8833 -84.1500 360° North 114 131 3,200 -240 Descending Cincinnati TRACON
06:58PM 38.9167 -84.1667 339° North 119 137 3,000 -240 Descending Cincinnati TRACON